createdAt,value
2022-09-15T00:00:26.727Z,8
2022-09-15T00:01:26.849Z,8
2022-09-15T00:03:26.764Z,8
2022-09-15T00:04:26.748Z,8
2022-09-15T00:05:26.732Z,8
2022-09-15T00:06:26.741Z,8
2022-09-15T00:07:26.734Z,8
2022-09-15T00:09:26.758Z,8
2022-09-15T00:10:26.751Z,8
2022-09-15T00:11:26.734Z,8
2022-09-15T00:12:26.798Z,8
2022-09-15T00:14:26.767Z,8
2022-09-15T00:15:26.730Z,8
2022-09-15T00:17:26.733Z,8
2022-09-15T00:19:26.747Z,9
2022-09-15T00:20:26.738Z,9
2022-09-15T00:21:26.754Z,8
2022-09-15T00:22:26.786Z,8
2022-09-15T00:24:26.745Z,9
2022-09-15T00:25:26.744Z,9
2022-09-15T00:26:26.755Z,8
2022-09-15T00:27:26.734Z,8
2022-09-15T00:30:26.788Z,9
2022-09-15T00:31:26.854Z,8
2022-09-15T00:32:26.784Z,8
2022-09-15T00:35:26.740Z,8
2022-09-15T00:36:26.740Z,9
2022-09-15T00:37:26.740Z,9
2022-09-15T00:40:26.813Z,8
2022-09-15T00:41:26.739Z,8
2022-09-15T00:42:26.743Z,9
2022-09-15T00:44:26.746Z,8
2022-09-15T00:45:26.790Z,8
2022-09-15T00:46:26.749Z,8
2022-09-15T00:47:26.801Z,9
2022-09-15T00:48:26.765Z,8
2022-09-15T00:49:26.741Z,8
2022-09-15T00:51:26.746Z,8
2022-09-15T00:52:26.785Z,8
2022-09-15T00:53:26.776Z,8
2022-09-15T00:54:26.744Z,8
2022-09-15T00:56:26.753Z,8
2022-09-15T00:57:26.743Z,8
2022-09-15T00:58:26.753Z,8
2022-09-15T00:59:26.753Z,8
2022-09-15T01:01:26.895Z,8
2022-09-15T01:02:26.789Z,8
2022-09-15T01:03:26.757Z,9
2022-09-15T01:04:26.756Z,8
2022-09-15T01:06:26.756Z,9
2022-09-15T01:08:26.752Z,9
2022-09-15T01:09:26.751Z,8
2022-09-15T01:10:26.798Z,9
2022-09-15T01:13:26.748Z,8
2022-09-15T01:14:26.758Z,8
2022-09-15T01:18:26.748Z,8
2022-09-15T01:19:26.754Z,8
2022-09-15T01:22:26.760Z,8
2022-09-15T01:23:26.750Z,9
2022-09-15T01:24:26.777Z,9
2022-09-15T01:25:26.753Z,8
2022-09-15T01:26:26.753Z,8
2022-09-15T01:27:41.760Z,8
2022-09-15T01:28:26.760Z,8
2022-09-15T01:29:26.765Z,8
2022-09-15T01:30:26.755Z,8
2022-09-15T01:33:26.757Z,9
2022-09-15T01:34:26.761Z,8
2022-09-15T01:35:26.782Z,9
2022-09-15T01:38:26.769Z,8
2022-09-15T01:39:26.767Z,9
2022-09-15T01:40:26.809Z,9
2022-09-15T01:43:26.765Z,9
2022-09-15T01:44:26.768Z,10
2022-09-15T01:45:26.846Z,9
2022-09-15T01:46:26.763Z,9
2022-09-15T01:47:26.780Z,9
2022-09-15T01:48:26.764Z,9
2022-09-15T01:49:26.773Z,9
2022-09-15T01:50:26.814Z,10
2022-09-15T01:51:26.766Z,10
2022-09-15T01:52:26.764Z,9
2022-09-15T01:53:26.774Z,9
2022-09-15T01:54:26.768Z,9
2022-09-15T01:55:26.803Z,10
2022-09-15T01:56:26.774Z,10
2022-09-15T01:58:26.772Z,9
2022-09-15T02:00:26.773Z,10
2022-09-15T02:01:26.838Z,10
2022-09-15T02:03:26.771Z,9
2022-09-15T02:04:26.775Z,10
2022-09-15T02:05:26.816Z,10
2022-09-15T02:06:26.770Z,10
2022-09-15T02:08:26.773Z,10
2022-09-15T02:09:26.783Z,10
2022-09-15T02:12:26.780Z,9
2022-09-15T02:14:26.783Z,9
2022-09-15T02:17:26.778Z,10
2022-09-15T02:19:26.782Z,10
2022-09-15T02:22:26.789Z,10
2022-09-15T02:23:26.779Z,9
2022-09-15T02:24:26.784Z,9
2022-09-15T02:25:26.781Z,9
2022-09-15T02:26:26.805Z,10
2022-09-15T02:27:26.785Z,10
2022-09-15T02:28:26.785Z,11
2022-09-15T02:30:26.832Z,10
2022-09-15T02:32:26.792Z,10
2022-09-15T02:33:26.792Z,10
2022-09-15T02:35:26.797Z,10
2022-09-15T02:36:26.790Z,9
2022-09-15T02:38:26.791Z,10
2022-09-15T02:40:26.876Z,10
2022-09-15T02:41:26.784Z,10
2022-09-15T02:43:26.840Z,10
2022-09-15T02:44:26.787Z,10
2022-09-15T02:46:26.790Z,9
2022-09-15T02:47:26.806Z,11
2022-09-15T02:48:26.793Z,10
2022-09-15T02:49:26.791Z,10
2022-09-15T02:51:26.800Z,10
2022-09-15T02:54:26.797Z,11
2022-09-15T02:56:26.801Z,10
2022-09-15T02:59:26.799Z,11
2022-09-15T03:01:26.923Z,10
2022-09-15T03:04:26.794Z,11
2022-09-15T03:05:26.794Z,11
2022-09-15T03:06:26.804Z,10
2022-09-15T03:07:26.797Z,10
2022-09-15T03:08:26.800Z,11
2022-09-15T03:09:26.795Z,10
2022-09-15T03:10:26.795Z,11
2022-09-15T03:11:26.802Z,11
2022-09-15T03:12:26.795Z,11
2022-09-15T03:13:26.802Z,10
2022-09-15T03:14:26.811Z,11
2022-09-15T03:15:26.805Z,11
2022-09-15T03:16:26.885Z,11
2022-09-15T03:17:26.803Z,11
2022-09-15T03:18:26.811Z,10
2022-09-15T03:19:26.804Z,10
2022-09-15T03:20:26.804Z,10
2022-09-15T03:21:26.849Z,10
2022-09-15T03:23:26.804Z,11
2022-09-15T03:24:26.812Z,11
2022-09-15T03:25:26.860Z,11
2022-09-15T03:28:26.838Z,10
2022-09-15T03:29:26.819Z,10
2022-09-15T03:30:26.880Z,11
2022-09-15T03:34:26.813Z,11
2022-09-15T03:35:26.816Z,11
2022-09-15T03:38:26.822Z,10
2022-09-15T03:39:26.813Z,12
2022-09-15T03:40:26.865Z,11
2022-09-15T03:41:26.868Z,10
2022-09-15T03:44:26.815Z,11
2022-09-15T03:45:26.849Z,10
2022-09-15T03:46:26.812Z,10
2022-09-15T03:47:26.820Z,10
2022-09-15T03:49:26.817Z,11
2022-09-15T03:50:26.823Z,10
2022-09-15T03:51:26.820Z,11
2022-09-15T03:52:26.823Z,11
2022-09-15T03:54:26.826Z,10
2022-09-15T03:55:26.826Z,10
2022-09-15T03:56:26.824Z,10
2022-09-15T03:57:26.824Z,10
2022-09-15T03:58:30.131Z,10
2022-09-15T03:59:26.850Z,10
2022-09-15T04:00:26.934Z,10
2022-09-15T04:01:26.864Z,10
2022-09-15T04:02:26.985Z,10
2022-09-15T04:05:26.829Z,10
2022-09-15T04:06:26.829Z,10
2022-09-15T04:07:26.820Z,11
2022-09-15T04:09:26.827Z,11
2022-09-15T04:10:26.873Z,10
2022-09-15T04:11:26.840Z,10
2022-09-15T04:12:26.829Z,10
2022-09-15T04:13:28.774Z,11
2022-09-15T04:15:26.832Z,10
2022-09-15T04:17:26.836Z,10
2022-09-15T04:19:26.832Z,10
2022-09-15T04:20:26.830Z,11
2022-09-15T04:22:26.840Z,11
2022-09-15T04:24:26.834Z,10
2022-09-15T04:25:26.829Z,10
2022-09-15T04:27:26.834Z,11
2022-09-15T04:29:26.837Z,10
2022-09-15T04:30:26.925Z,11
2022-09-15T04:31:26.893Z,11
2022-09-15T04:32:26.842Z,10
2022-09-15T04:33:26.846Z,9
2022-09-15T04:34:26.842Z,10
2022-09-15T04:35:26.842Z,11
2022-09-15T04:38:26.837Z,11
2022-09-15T04:40:26.917Z,11
2022-09-15T04:41:26.883Z,11
2022-09-15T04:42:26.836Z,11
2022-09-15T04:43:26.841Z,11
2022-09-15T04:45:26.844Z,11
2022-09-15T04:46:26.863Z,11
2022-09-15T04:47:26.846Z,10
2022-09-15T04:48:26.855Z,11
2022-09-15T04:51:26.861Z,11
2022-09-15T04:52:26.900Z,11
2022-09-15T04:53:26.850Z,11
2022-09-15T04:54:26.860Z,11
2022-09-15T04:56:26.841Z,11
2022-09-15T04:57:26.847Z,12
2022-09-15T04:58:26.859Z,11
2022-09-15T04:59:26.860Z,11
2022-09-15T05:01:26.985Z,13
2022-09-15T05:02:26.919Z,13
2022-09-15T05:03:26.852Z,13
2022-09-15T05:04:26.849Z,12
2022-09-15T05:06:26.855Z,12
2022-09-15T05:07:26.849Z,12
2022-09-15T05:08:26.848Z,12
2022-09-15T05:09:26.859Z,12
2022-09-15T05:11:26.862Z,12
2022-09-15T05:12:26.858Z,12
2022-09-15T05:13:26.854Z,11
2022-09-15T05:14:26.861Z,12
2022-09-15T05:15:26.857Z,12
2022-09-15T05:16:26.967Z,12
2022-09-15T05:17:26.987Z,13
2022-09-15T05:18:26.855Z,11
2022-09-15T05:19:26.907Z,10
2022-09-15T05:20:26.858Z,10
2022-09-15T05:22:26.866Z,10
2022-09-15T05:23:26.853Z,11
2022-09-15T05:24:26.859Z,11
2022-09-15T05:25:26.866Z,12
2022-09-15T05:26:26.865Z,11
2022-09-15T05:27:26.863Z,11
2022-09-15T05:28:26.920Z,11
2022-09-15T05:29:26.868Z,11
2022-09-15T05:30:36.295Z,11
2022-09-15T05:31:26.968Z,11
2022-09-15T05:33:26.861Z,11
2022-09-15T05:34:26.858Z,10
2022-09-15T05:35:26.868Z,11
2022-09-15T05:37:37.987Z,11
2022-09-15T05:40:26.917Z,11
2022-09-15T05:41:26.921Z,11
2022-09-15T05:43:26.863Z,12
2022-09-15T05:44:26.871Z,11
2022-09-15T05:45:26.863Z,12
2022-09-15T05:46:26.939Z,10
2022-09-15T05:47:26.866Z,12
2022-09-15T05:48:26.880Z,11
2022-09-15T05:49:26.865Z,11
2022-09-15T05:50:26.938Z,11
2022-09-15T05:51:26.861Z,11
2022-09-15T05:52:26.874Z,11
2022-09-15T05:54:26.874Z,12
2022-09-15T05:55:26.866Z,11
2022-09-15T05:56:26.873Z,12
2022-09-15T05:57:26.877Z,12
2022-09-15T05:59:26.953Z,11
2022-09-15T06:00:26.875Z,11
2022-09-15T06:01:26.985Z,11
2022-09-15T06:02:26.891Z,12
2022-09-15T06:06:26.882Z,11
2022-09-15T06:07:26.881Z,11
2022-09-15T06:09:26.873Z,11
2022-09-15T06:10:26.922Z,11
2022-09-15T06:11:26.879Z,11
2022-09-15T06:12:26.878Z,11
2022-09-15T06:15:26.884Z,10
2022-09-15T06:16:26.971Z,11
2022-09-15T06:20:27.013Z,12
2022-09-15T06:21:26.885Z,12
2022-09-15T06:22:26.887Z,12
2022-09-15T06:23:26.890Z,12
2022-09-15T06:25:26.884Z,13
2022-09-15T06:26:26.887Z,12
2022-09-15T06:27:26.889Z,12
2022-09-15T06:28:26.901Z,12
2022-09-15T06:29:26.892Z,12
2022-09-15T06:31:26.949Z,12
2022-09-15T06:32:26.882Z,13
2022-09-15T06:33:26.890Z,12
2022-09-15T06:34:26.914Z,11
2022-09-15T06:35:26.902Z,11
2022-09-15T06:36:26.887Z,11
2022-09-15T06:37:26.938Z,11
2022-09-15T06:38:26.888Z,11
2022-09-15T06:39:26.896Z,11
2022-09-15T06:40:27.082Z,12
2022-09-15T06:41:26.891Z,11
2022-09-15T06:42:26.889Z,11
2022-09-15T06:43:26.890Z,10
2022-09-15T06:47:26.892Z,10
2022-09-15T06:48:26.895Z,10
2022-09-15T06:49:26.897Z,11
2022-09-15T06:51:26.894Z,11
2022-09-15T06:52:26.899Z,11
2022-09-15T06:53:26.896Z,10
2022-09-15T06:54:26.899Z,11
2022-09-15T06:57:26.897Z,10
2022-09-15T06:58:26.896Z,10
2022-09-15T06:59:26.895Z,10
2022-09-15T07:00:26.915Z,9
2022-09-15T07:01:26.898Z,9
2022-09-15T07:02:27.003Z,9
2022-09-15T07:03:27.026Z,9
2022-09-15T07:04:26.897Z,9
2022-09-15T07:05:26.926Z,10
2022-09-15T07:07:26.900Z,9
2022-09-15T07:08:26.948Z,9
2022-09-15T07:09:27.296Z,9
2022-09-15T07:10:26.901Z,9
2022-09-15T07:13:26.906Z,9
2022-09-15T07:14:26.907Z,9
2022-09-15T07:18:26.902Z,7
2022-09-15T07:19:26.949Z,7
2022-09-15T07:23:26.906Z,7
2022-09-15T07:24:26.925Z,7
2022-09-15T07:25:26.914Z,7
2022-09-15T07:26:26.912Z,6
2022-09-15T07:28:26.915Z,7
2022-09-15T07:29:26.906Z,7
2022-09-15T07:30:26.915Z,6
2022-09-15T07:31:26.989Z,7
2022-09-15T07:32:26.909Z,6
2022-09-15T07:33:26.908Z,6
2022-09-15T07:34:26.909Z,6
2022-09-15T07:35:26.956Z,6
2022-09-15T07:36:26.938Z,6
2022-09-15T07:39:26.927Z,6
2022-09-15T07:40:27.128Z,6
2022-09-15T07:41:26.913Z,6
2022-09-15T07:45:26.953Z,4
2022-09-15T07:47:26.920Z,5
2022-09-15T07:49:26.923Z,4
2022-09-15T07:50:26.974Z,5
2022-09-15T07:51:26.927Z,5
2022-09-15T07:52:26.926Z,4
2022-09-15T07:53:26.922Z,5
2022-09-15T07:54:26.921Z,4
2022-09-15T07:55:26.919Z,4
2022-09-15T07:58:26.934Z,3
2022-09-15T08:02:26.987Z,3
2022-09-15T08:03:26.929Z,3
2022-09-15T08:05:26.935Z,3
2022-09-15T08:06:26.928Z,4
2022-09-15T08:07:26.971Z,3
2022-09-15T08:10:26.932Z,3
2022-09-15T08:11:26.933Z,3
2022-09-15T08:12:26.939Z,3
2022-09-15T08:13:26.957Z,3
2022-09-15T08:14:26.928Z,3
2022-09-15T08:15:26.938Z,3
2022-09-15T08:16:26.998Z,3
2022-09-15T08:17:26.937Z,3
2022-09-15T08:18:26.934Z,3
2022-09-15T08:22:26.941Z,3
2022-09-15T08:23:26.936Z,3
2022-09-15T08:25:26.938Z,3
2022-09-15T08:29:26.960Z,4
2022-09-15T08:30:27.014Z,4
2022-09-15T08:31:27.010Z,4
2022-09-15T08:34:26.945Z,4
2022-09-15T08:36:26.946Z,4
2022-09-15T08:37:26.946Z,4
2022-09-15T08:38:27.064Z,4
2022-09-15T08:41:26.962Z,5
2022-09-15T08:42:26.950Z,4
2022-09-15T08:43:26.947Z,4
2022-09-15T08:44:26.945Z,4
2022-09-15T08:46:27.025Z,4
2022-09-15T08:47:26.946Z,4
2022-09-15T08:48:27.017Z,4
2022-09-15T08:49:47.390Z,4
2022-09-15T08:50:26.948Z,4
2022-09-15T08:54:26.963Z,4
2022-09-15T08:55:26.951Z,4
2022-09-15T08:57:27.013Z,4
2022-09-15T08:59:26.963Z,4
2022-09-15T09:00:26.955Z,4
2022-09-15T09:02:27.055Z,5
2022-09-15T09:07:26.965Z,4
2022-09-15T09:13:26.973Z,3
2022-09-15T09:16:26.970Z,3
2022-09-15T09:22:26.983Z,2
2022-09-15T09:30:27.046Z,3
2022-09-15T09:39:26.973Z,2
2022-09-15T09:59:27.063Z,2
2022-09-15T10:46:27.052Z,1
2022-09-15T10:55:48.517Z,1
2022-09-15T11:21:27.040Z,2
2022-09-15T11:26:27.044Z,2
2022-09-15T11:28:27.061Z,2
2022-09-15T11:29:27.040Z,2
2022-09-15T11:30:27.041Z,1
2022-09-15T11:33:27.101Z,1
2022-09-15T11:36:27.040Z,2
2022-09-15T11:40:27.098Z,1
2022-09-15T11:43:27.039Z,2
2022-09-15T11:44:27.046Z,2
2022-09-15T11:45:27.058Z,2
2022-09-15T11:46:27.095Z,2
2022-09-15T11:47:27.039Z,2
2022-09-15T11:48:27.046Z,2
2022-09-15T11:49:27.048Z,2
2022-09-15T11:51:27.040Z,2
2022-09-15T11:52:27.046Z,2
2022-09-15T11:53:27.046Z,2
2022-09-15T11:54:29.996Z,2
2022-09-15T11:55:27.049Z,2
2022-09-15T11:56:27.049Z,2
2022-09-15T11:57:27.047Z,3
2022-09-15T11:58:27.045Z,3
2022-09-15T11:59:27.111Z,2
2022-09-15T12:00:27.044Z,2
2022-09-15T12:01:27.162Z,3
2022-09-15T12:02:27.250Z,3
2022-09-15T12:03:27.052Z,3
2022-09-15T12:04:27.054Z,2
2022-09-15T12:05:27.049Z,2
2022-09-15T12:06:27.062Z,2
2022-09-15T12:07:27.060Z,3
2022-09-15T12:08:27.050Z,2
2022-09-15T12:09:27.053Z,3
2022-09-15T12:10:27.062Z,2
2022-09-15T12:11:27.057Z,2
2022-09-15T12:12:30.727Z,2
2022-09-15T12:13:27.128Z,2
2022-09-15T12:14:27.053Z,2
2022-09-15T12:15:27.084Z,2
2022-09-15T12:16:27.092Z,3
2022-09-15T12:17:27.053Z,3
2022-09-15T12:18:39.025Z,3
2022-09-15T12:19:27.070Z,3
2022-09-15T12:20:27.055Z,3
2022-09-15T12:21:27.057Z,3
2022-09-15T12:22:27.060Z,3
2022-09-15T12:23:27.051Z,2
2022-09-15T12:24:27.122Z,2
2022-09-15T12:25:27.058Z,2
2022-09-15T12:26:27.062Z,2
2022-09-15T12:27:27.059Z,3
2022-09-15T12:28:27.145Z,3
2022-09-15T12:29:41.145Z,3
2022-09-15T12:30:27.065Z,3
2022-09-15T12:31:27.132Z,3
2022-09-15T12:32:27.098Z,3
2022-09-15T12:33:27.064Z,3
2022-09-15T12:34:27.082Z,3
2022-09-15T12:35:27.068Z,3
2022-09-15T12:36:27.064Z,2
2022-09-15T12:37:27.067Z,3
2022-09-15T12:38:27.067Z,3
2022-09-15T12:39:27.067Z,3
2022-09-15T12:40:27.143Z,3
2022-09-15T12:41:27.070Z,3
2022-09-15T12:42:27.065Z,2
2022-09-15T12:43:27.067Z,2
2022-09-15T12:44:27.065Z,3
2022-09-15T12:45:27.092Z,2
2022-09-15T12:46:27.194Z,3
2022-09-15T12:47:27.069Z,3
2022-09-15T12:48:27.067Z,2
2022-09-15T12:49:27.075Z,2
2022-09-15T12:50:27.080Z,2
2022-09-15T12:51:27.069Z,2
2022-09-15T12:52:27.081Z,2
2022-09-15T12:53:27.153Z,2
2022-09-15T12:54:27.080Z,2
2022-09-15T12:55:27.068Z,2
2022-09-15T12:56:27.084Z,2
2022-09-15T12:57:27.081Z,2
2022-09-15T12:59:27.074Z,2
2022-09-15T13:00:27.079Z,2
2022-09-15T13:01:27.198Z,2
2022-09-15T13:02:27.191Z,2
2022-09-15T13:03:27.130Z,2
2022-09-15T13:04:27.092Z,2
2022-09-15T13:05:27.080Z,2
2022-09-15T13:06:27.085Z,3
2022-09-15T13:07:27.083Z,2
2022-09-15T13:08:27.086Z,2
2022-09-15T13:09:27.089Z,2
2022-09-15T13:10:27.079Z,2
2022-09-15T13:11:27.081Z,2
2022-09-15T13:12:27.078Z,2
2022-09-15T13:13:28.895Z,2
2022-09-15T13:14:27.082Z,2
2022-09-15T13:15:27.165Z,2
2022-09-15T13:16:27.105Z,2
2022-09-15T13:17:27.091Z,2
2022-09-15T13:18:27.093Z,1
2022-09-15T13:19:27.091Z,2
2022-09-15T13:20:27.085Z,2
2022-09-15T13:21:27.092Z,1
2022-09-15T13:22:27.093Z,1
2022-09-15T13:23:27.094Z,2
2022-09-15T13:24:27.128Z,1
2022-09-15T13:25:27.091Z,1
2022-09-15T13:26:27.088Z,1
2022-09-15T13:27:27.099Z,2
2022-09-15T13:28:27.098Z,1
2022-09-15T13:30:27.090Z,1
2022-09-15T13:31:27.167Z,1
2022-09-15T13:32:27.096Z,1
2022-09-15T13:35:00.194Z,1
2022-09-15T13:35:27.143Z,1
2022-09-15T13:36:27.437Z,1
2022-09-15T13:38:31.565Z,1
2022-09-15T13:39:27.100Z,2
2022-09-15T13:40:27.365Z,1
2022-09-15T13:41:27.096Z,2
2022-09-15T13:42:27.100Z,1
2022-09-15T13:43:27.103Z,2
2022-09-15T13:44:27.104Z,1
2022-09-15T13:45:27.110Z,2
2022-09-15T13:46:27.199Z,1
2022-09-15T13:47:27.121Z,1
2022-09-15T13:48:27.105Z,2
2022-09-15T13:49:27.098Z,2
2022-09-15T13:50:27.102Z,2
2022-09-15T13:51:27.105Z,1
2022-09-15T13:52:27.106Z,1
2022-09-15T13:53:27.102Z,2
2022-09-15T13:54:27.106Z,2
2022-09-15T13:55:27.139Z,2
2022-09-15T13:56:27.108Z,2
2022-09-15T13:59:27.445Z,2
2022-09-15T14:00:27.110Z,2
2022-09-15T14:01:27.864Z,2
2022-09-15T14:02:27.266Z,2
2022-09-15T14:03:27.105Z,2
2022-09-15T14:04:27.113Z,2
2022-09-15T14:05:27.107Z,2
2022-09-15T14:06:27.115Z,2
2022-09-15T14:07:27.105Z,2
2022-09-15T14:08:27.114Z,2
2022-09-15T14:09:27.108Z,2
2022-09-15T14:10:27.109Z,2
2022-09-15T14:11:27.115Z,2
2022-09-15T14:12:27.110Z,2
2022-09-15T14:13:27.180Z,2
2022-09-15T14:14:27.115Z,2
2022-09-15T14:15:27.112Z,2
2022-09-15T14:16:27.186Z,2
2022-09-15T14:17:27.115Z,2
2022-09-15T14:18:27.138Z,2
2022-09-15T14:19:27.117Z,2
2022-09-15T14:20:27.117Z,2
2022-09-15T14:21:27.118Z,2
2022-09-15T14:22:27.177Z,2
2022-09-15T14:23:27.122Z,2
2022-09-15T14:24:27.124Z,2
2022-09-15T14:25:27.116Z,2
2022-09-15T14:26:27.127Z,2
2022-09-15T14:27:27.115Z,2
2022-09-15T14:28:31.319Z,2
2022-09-15T14:30:27.126Z,2
2022-09-15T14:32:27.129Z,4
2022-09-15T14:33:27.123Z,2
2022-09-15T14:34:27.135Z,1
2022-09-15T14:35:27.132Z,2
2022-09-15T14:36:27.126Z,2
2022-09-15T14:37:27.123Z,2
2022-09-15T14:38:27.129Z,3
2022-09-15T14:39:27.127Z,2
2022-09-15T14:40:27.184Z,3
2022-09-15T14:41:27.133Z,3
2022-09-15T14:42:27.126Z,2
2022-09-15T14:43:27.124Z,3
2022-09-15T14:46:27.178Z,2
2022-09-15T14:47:27.129Z,2
2022-09-15T14:48:27.129Z,2
2022-09-15T14:49:27.155Z,2
2022-09-15T14:50:31.859Z,2
2022-09-15T14:51:27.139Z,2
2022-09-15T14:52:27.152Z,2
2022-09-15T14:53:27.136Z,2
2022-09-15T14:54:27.132Z,2
2022-09-15T14:55:27.192Z,2
2022-09-15T14:56:27.134Z,2
2022-09-15T14:57:30.823Z,2
2022-09-15T14:58:27.136Z,2
2022-09-15T14:59:27.135Z,2
2022-09-15T15:00:27.148Z,2
2022-09-15T15:01:27.210Z,2
2022-09-15T15:02:27.219Z,2
2022-09-15T15:03:27.159Z,1
2022-09-15T15:04:27.183Z,1
2022-09-15T15:05:27.152Z,1
2022-09-15T15:06:29.750Z,2
2022-09-15T15:07:27.156Z,2
2022-09-15T15:08:27.143Z,1
2022-09-15T15:09:27.146Z,2
2022-09-15T15:10:27.150Z,1
2022-09-15T15:11:27.149Z,2
2022-09-15T15:12:27.146Z,2
2022-09-15T15:13:27.153Z,2
2022-09-15T15:14:27.149Z,2
2022-09-15T15:15:27.190Z,2
2022-09-15T15:16:27.181Z,2
2022-09-15T15:17:27.148Z,2
2022-09-15T15:18:31.561Z,2
2022-09-15T15:19:27.158Z,2
2022-09-15T15:20:27.212Z,2
2022-09-15T15:21:27.149Z,2
2022-09-15T15:22:27.156Z,2
2022-09-15T15:23:27.158Z,2
2022-09-15T15:24:27.194Z,2
2022-09-15T15:25:27.155Z,2
2022-09-15T15:26:27.152Z,2
2022-09-15T15:27:27.173Z,2
2022-09-15T15:28:27.157Z,2
2022-09-15T15:29:37.966Z,2
2022-09-15T15:31:27.212Z,2
2022-09-15T15:32:27.161Z,2
2022-09-15T15:33:27.151Z,2
2022-09-15T15:34:27.166Z,2
2022-09-15T15:35:27.163Z,2
2022-09-15T15:36:27.163Z,2
2022-09-15T15:37:27.207Z,2
2022-09-15T15:38:27.160Z,2
2022-09-15T15:39:27.160Z,2
2022-09-15T15:40:27.283Z,2
2022-09-15T15:41:27.167Z,2
2022-09-15T15:42:27.166Z,2
2022-09-15T15:43:27.174Z,2
2022-09-15T15:44:27.159Z,2
2022-09-15T15:45:27.203Z,2
2022-09-15T15:46:27.157Z,2
2022-09-15T15:47:27.164Z,2
2022-09-15T15:48:27.163Z,2
2022-09-15T15:49:27.167Z,2
2022-09-15T15:50:27.172Z,2
2022-09-15T15:51:27.189Z,2
2022-09-15T15:52:27.168Z,2
2022-09-15T15:53:27.171Z,2
2022-09-15T15:54:27.169Z,2
2022-09-15T15:55:27.167Z,2
2022-09-15T15:56:27.174Z,2
2022-09-15T15:57:27.216Z,2
2022-09-15T15:58:27.188Z,2
2022-09-15T15:59:27.173Z,2
2022-09-15T16:00:27.178Z,2
2022-09-15T16:01:27.183Z,2
2022-09-15T16:02:27.285Z,2
2022-09-15T16:03:27.171Z,2
2022-09-15T16:04:27.175Z,2
2022-09-15T16:05:27.173Z,2
2022-09-15T16:06:27.217Z,2
2022-09-15T16:07:32.499Z,2
2022-09-15T16:08:27.175Z,2
2022-09-15T16:09:27.176Z,1
2022-09-15T16:10:27.173Z,1
2022-09-15T16:11:27.173Z,1
2022-09-15T16:12:30.696Z,2
2022-09-15T16:13:27.256Z,2
2022-09-15T16:14:27.178Z,2
2022-09-15T16:15:27.177Z,2
2022-09-15T16:16:27.263Z,2
2022-09-15T16:17:27.180Z,1
2022-09-15T16:18:27.181Z,1
2022-09-15T16:19:27.179Z,2
2022-09-15T16:20:27.184Z,1
2022-09-15T16:21:27.179Z,1
2022-09-15T16:22:27.219Z,1
2022-09-15T16:23:27.181Z,1
2022-09-15T16:24:27.189Z,1
2022-09-15T16:25:27.196Z,1
2022-09-15T16:26:27.197Z,1
2022-09-15T16:27:27.186Z,2
2022-09-15T16:28:27.215Z,2
2022-09-15T16:29:27.188Z,2
2022-09-15T16:30:27.187Z,1
2022-09-15T16:32:27.185Z,2
2022-09-15T16:33:27.203Z,2
2022-09-15T16:34:27.196Z,2
2022-09-15T16:35:27.192Z,1
2022-09-15T16:36:27.196Z,1
2022-09-15T16:37:27.190Z,1
2022-09-15T16:38:27.203Z,1
2022-09-15T16:39:27.194Z,1
2022-09-15T16:40:27.301Z,1
2022-09-15T16:41:27.196Z,1
2022-09-15T16:42:27.194Z,1
2022-09-15T16:43:27.192Z,1
2022-09-15T16:44:27.286Z,1
2022-09-15T16:45:27.200Z,1
2022-09-15T16:46:27.274Z,1
2022-09-15T16:47:27.192Z,1
2022-09-15T16:48:27.200Z,1
2022-09-15T16:49:27.201Z,1
2022-09-15T16:50:27.195Z,1
2022-09-15T16:51:31.168Z,1
2022-09-15T16:52:27.197Z,1
2022-09-15T16:53:27.289Z,1
2022-09-15T16:54:27.206Z,1
2022-09-15T16:55:27.201Z,1
2022-09-15T16:56:27.207Z,2
2022-09-15T16:57:27.196Z,1
2022-09-15T16:58:27.203Z,1
2022-09-15T16:59:27.201Z,1
2022-09-15T17:00:27.290Z,1
2022-09-15T17:01:27.202Z,1
2022-09-15T17:02:27.246Z,1
2022-09-15T17:03:27.198Z,2
2022-09-15T17:04:27.207Z,1
2022-09-15T17:05:27.203Z,1
2022-09-15T17:06:27.205Z,1
2022-09-15T17:07:27.285Z,2
2022-09-15T17:08:27.217Z,2
2022-09-15T17:09:27.228Z,2
2022-09-15T17:10:27.201Z,2
2022-09-15T17:11:27.213Z,1
2022-09-15T17:12:27.204Z,1
2022-09-15T17:13:30.094Z,2
2022-09-15T17:14:27.215Z,1
2022-09-15T17:15:27.251Z,2
2022-09-15T17:16:27.246Z,2
2022-09-15T17:17:27.207Z,3
2022-09-15T17:18:27.208Z,2
2022-09-15T17:19:27.207Z,1
2022-09-15T17:20:27.213Z,2
2022-09-15T17:21:27.595Z,2
2022-09-15T17:22:27.212Z,1
2022-09-15T17:23:27.205Z,1
2022-09-15T17:24:27.276Z,1
2022-09-15T17:25:27.220Z,1
2022-09-15T17:26:31.219Z,1
2022-09-15T17:27:27.211Z,1
2022-09-15T17:28:27.219Z,1
2022-09-15T17:29:27.214Z,1
2022-09-15T17:30:27.221Z,2
2022-09-15T17:31:27.248Z,2
2022-09-15T17:32:29.685Z,2
2022-09-15T17:33:27.260Z,2
2022-09-15T17:34:27.214Z,2
2022-09-15T17:35:27.228Z,1
2022-09-15T17:36:27.210Z,1
2022-09-15T17:37:27.225Z,2
2022-09-15T17:38:27.222Z,1
2022-09-15T17:39:27.212Z,2
2022-09-15T17:40:27.228Z,2
2022-09-15T17:41:27.217Z,2
2022-09-15T17:42:27.224Z,2
2022-09-15T17:43:27.216Z,1
2022-09-15T17:44:27.252Z,2
2022-09-15T17:45:27.218Z,2
2022-09-15T17:46:27.333Z,2
2022-09-15T17:47:27.218Z,1
2022-09-15T17:48:27.225Z,1
2022-09-15T17:49:27.228Z,2
2022-09-15T17:50:37.228Z,1
2022-09-15T17:51:27.231Z,1
2022-09-15T17:52:27.223Z,2
2022-09-15T17:53:27.234Z,1
2022-09-15T17:54:27.227Z,2
2022-09-15T17:55:27.260Z,1
2022-09-15T17:56:27.228Z,2
2022-09-15T17:57:27.223Z,2
2022-09-15T17:58:27.225Z,2
2022-09-15T17:59:27.225Z,1
2022-09-15T18:00:27.226Z,2
2022-09-15T18:01:27.298Z,2
2022-09-15T18:02:27.270Z,2
2022-09-15T18:03:27.225Z,2
2022-09-15T18:04:27.278Z,1
2022-09-15T18:05:27.226Z,1
2022-09-15T18:06:27.236Z,1
2022-09-15T18:07:27.225Z,1
2022-09-15T18:08:27.238Z,1
2022-09-15T18:09:27.224Z,1
2022-09-15T18:10:27.237Z,2
2022-09-15T18:11:27.226Z,2
2022-09-15T18:12:27.242Z,1
2022-09-15T18:13:27.233Z,1
2022-09-15T18:14:27.247Z,1
2022-09-15T18:15:27.232Z,2
2022-09-15T18:16:27.234Z,2
2022-09-15T18:17:27.236Z,2
2022-09-15T18:18:27.236Z,2
2022-09-15T18:19:27.236Z,1
2022-09-15T18:20:27.231Z,1
2022-09-15T18:21:27.238Z,2
2022-09-15T18:22:27.238Z,2
2022-09-15T18:23:27.231Z,2
2022-09-15T18:24:27.240Z,2
2022-09-15T18:25:27.237Z,2
2022-09-15T18:26:27.289Z,1
2022-09-15T18:27:27.230Z,1
2022-09-15T18:28:27.242Z,1
2022-09-15T18:29:27.235Z,2
2022-09-15T18:30:27.235Z,2
2022-09-15T18:31:27.276Z,1
2022-09-15T18:32:27.241Z,1
2022-09-15T18:33:27.270Z,2
2022-09-15T18:34:27.247Z,2
2022-09-15T18:35:27.243Z,2
2022-09-15T18:36:27.236Z,1
2022-09-15T18:37:27.237Z,2
2022-09-15T18:38:27.244Z,1
2022-09-15T18:39:27.239Z,1
2022-09-15T18:40:27.313Z,1
2022-09-15T18:41:27.244Z,2
2022-09-15T18:42:29.851Z,1
2022-09-15T18:43:27.240Z,1
2022-09-15T18:44:27.251Z,1
2022-09-15T18:45:27.246Z,1
2022-09-15T18:46:27.324Z,2
2022-09-15T18:47:27.245Z,2
2022-09-15T18:48:27.245Z,2
2022-09-15T18:49:27.247Z,2
2022-09-15T18:52:27.255Z,2
2022-09-15T18:53:27.313Z,2
2022-09-15T18:54:27.246Z,2
2022-09-15T18:55:27.247Z,1
2022-09-15T18:56:27.267Z,2
2022-09-15T18:57:27.294Z,1
2022-09-15T18:58:27.257Z,2
2022-09-15T18:59:27.253Z,2
2022-09-15T19:00:27.252Z,1
2022-09-15T19:01:27.372Z,2
2022-09-15T19:02:27.461Z,2
2022-09-15T19:03:27.249Z,2
2022-09-15T19:04:31.620Z,2
2022-09-15T19:05:27.257Z,2
2022-09-15T19:06:27.261Z,2
2022-09-15T19:07:28.585Z,2
2022-09-15T19:08:27.260Z,2
2022-09-15T19:09:27.253Z,2
2022-09-15T19:10:27.256Z,1
2022-09-15T19:12:27.260Z,2
2022-09-15T19:13:27.264Z,2
2022-09-15T19:14:27.262Z,1
2022-09-15T19:15:27.260Z,2
2022-09-15T19:16:46.665Z,2
2022-09-15T19:17:27.258Z,2
2022-09-15T19:18:27.265Z,2
2022-09-15T19:19:27.257Z,2
2022-09-15T19:20:27.332Z,1
2022-09-15T19:21:27.589Z,1
2022-09-15T19:22:27.262Z,2
2022-09-15T19:23:27.265Z,2
2022-09-15T19:24:27.260Z,2
2022-09-15T19:25:27.264Z,2
2022-09-15T19:26:27.255Z,1
2022-09-15T19:27:27.273Z,1
2022-09-15T19:28:27.308Z,2
2022-09-15T19:29:27.326Z,2
2022-09-15T19:30:27.262Z,2
2022-09-15T19:31:27.315Z,2
2022-09-15T19:32:27.263Z,2
2022-09-15T19:33:27.270Z,2
2022-09-15T19:34:27.263Z,2
2022-09-15T19:35:27.272Z,2
2022-09-15T19:36:28.790Z,1
2022-09-15T19:37:27.280Z,2
2022-09-15T19:38:27.274Z,2
2022-09-15T19:39:27.267Z,1
2022-09-15T19:40:27.481Z,2
2022-09-15T19:41:27.265Z,2
2022-09-15T19:42:27.270Z,2
2022-09-15T19:43:27.268Z,2
2022-09-15T19:44:27.267Z,1
2022-09-15T19:45:27.272Z,2
2022-09-15T19:46:27.327Z,1
2022-09-15T19:47:27.274Z,2
2022-09-15T19:48:27.268Z,2
2022-09-15T19:49:27.354Z,2
2022-09-15T19:51:27.311Z,2
2022-09-15T19:52:27.275Z,2
2022-09-15T19:53:27.275Z,2
2022-09-15T19:54:27.279Z,2
2022-09-15T19:55:27.275Z,2
2022-09-15T19:56:27.302Z,2
2022-09-15T19:57:27.275Z,2
2022-09-15T19:58:27.277Z,2
2022-09-15T19:59:31.039Z,2